Terminal Aerodrome Forecast
Issued by NWS

Home | Current Version | Previous Version | Graphics & Text | Print | Product List | Glossary On
Versions: 1 2 3 4 5 6 7 8 9 10 11 12 13 14 15 16 17 18
000
FTUS43 KTOP 221100
TAFMHK
TAF
KMHK 221120Z 2212/2312 13005KT P6SM SKC
     FM221600 18015G22KT P6SM SCT200
     FM230000 19007KT P6SM -SHRA BKN035
     FM230800 21005KT 6SM BR BKN035=

USA.gov is the U.S. government's official web portal to all federal, state and local government web resources and services.